Time;durP1;ratioP1;P1;durP2;ratioP2;P2;SDS_P1;SDS_P2;PMS_P1;PMS_P2;Temp;Humidity;BMP_temperature;BMP_pressure;BME280_temperature;BME280_humidity;BME280_pressure;Samples;Min_cycle;Max_cycle;Signal;HPM_P1;HPM_P2
2023/08/04 00:04:45;;;;;;;3.42;1.30;;;;;;;;;;10498085;28;20779;-86
2023/08/04 00:09:45;;;;;;;2.35;1.38;;;;;;;;;;10491396;28;20041;-84
2023/08/04 00:14:46;;;;;;;2.27;1.40;;;;;;;;;;10478617;28;20549;-84
2023/08/04 00:19:47;;;;;;;2.83;1.60;;;;;;;;;;10479928;28;20104;-83
2023/08/04 00:24:47;;;;;;;3.22;1.58;;;;;;;;;;10454871;28;20056;-82
2023/08/04 00:29:48;;;;;;;4.00;1.37;;;;;;;;;;10468954;28;20102;-82
2023/08/04 00:34:48;;;;;;;2.33;1.58;;;;;;;;;;10448853;28;20044;-84
2023/08/04 00:39:49;;;;;;;2.60;1.70;;;;;;;;;;10468716;28;20052;-83
2023/08/04 00:44:49;;;;;;;3.73;1.40;;;;;;;;;;10448828;28;20314;-81
2023/08/04 00:49:49;;;;;;;2.90;1.30;;;;;;;;;;10469190;28;20138;-83
2023/08/04 00:54:51;;;;;;;2.72;1.60;;;;;;;;;;10457541;28;20238;-82
2023/08/04 00:59:54;;;;;;;1.67;1.40;;;;;;;;;;10462318;28;20139;-82
2023/08/04 01:04:56;;;;;;;4.15;1.67;;;;;;;;;;10493506;28;20048;-83
2023/08/04 01:10:06;;;;;;;2.70;1.45;;;;;;;;;;10479830;28;20041;-82
2023/08/04 01:15:06;;;;;;;1.67;1.50;;;;;;;;;;10468208;28;20059;-84
2023/08/04 01:20:07;;;;;;;2.17;1.63;;;;;;;;;;10495720;28;20040;-86
2023/08/04 01:25:07;;;;;;;2.90;1.65;;;;;;;;;;10483818;28;20108;-83
2023/08/04 01:30:10;;;;;;;3.00;1.60;;;;;;;;;;10483891;28;20716;-82
2023/08/04 01:35:11;;;;;;;3.30;1.63;;;;;;;;;;10495895;28;20440;-82
2023/08/04 01:40:12;;;;;;;1.67;1.50;;;;;;;;;;10464414;28;20052;-84
2023/08/04 01:45:12;;;;;;;3.40;1.92;;;;;;;;;;10488982;28;20044;-83
2023/08/04 01:50:13;;;;;;;3.60;2.13;;;;;;;;;;10501147;28;20089;-84
2023/08/04 01:55:13;;;;;;;3.05;2.10;;;;;;;;;;10490262;28;20043;-81
2023/08/04 02:00:13;;;;;;;4.15;2.10;;;;;;;;;;10504348;28;20055;-85
2023/08/04 02:05:15;;;;;;;4.03;1.83;;;;;;;;;;10509366;28;20064;-81
2023/08/04 02:10:15;;;;;;;3.40;1.90;;;;;;;;;;10482809;28;20040;-81
2023/08/04 02:15:15;;;;;;;3.00;2.13;;;;;;;;;;10453703;28;20496;-82
2023/08/04 02:20:16;;;;;;;4.30;2.05;;;;;;;;;;10475326;28;20139;-81
2023/08/04 02:25:16;;;;;;;2.95;2.00;;;;;;;;;;10474310;28;20041;-82
2023/08/04 02:30:18;;;;;;;3.40;1.97;;;;;;;;;;10461437;28;20076;-84
2023/08/04 02:35:19;;;;;;;2.77;1.60;;;;;;;;;;10463514;28;20044;-83
2023/08/04 02:40:19;;;;;;;3.25;1.67;;;;;;;;;;10474988;28;20048;-84
2023/08/04 02:45:20;;;;;;;3.05;1.70;;;;;;;;;;10477197;28;20830;-84
2023/08/04 02:50:22;;;;;;;2.37;1.60;;;;;;;;;;10482286;28;20051;-85
2023/08/04 02:55:22;;;;;;;1.95;1.75;;;;;;;;;;10475833;28;20051;-83
2023/08/04 03:00:24;;;;;;;3.33;2.23;;;;;;;;;;10499850;28;20049;-86
2023/08/04 03:05:24;;;;;;;3.05;2.10;;;;;;;;;;10512153;28;20036;-87
2023/08/04 03:10:28;;;;;;;1.70;1.60;;;;;;;;;;10514264;28;20060;-86
2023/08/04 03:15:29;;;;;;;4.05;2.20;;;;;;;;;;10500995;28;20175;-80
2023/08/04 03:20:35;;;;;;;3.10;1.90;;;;;;;;;;10474147;28;20098;-82
2023/08/04 03:25:35;;;;;;;2.00;1.63;;;;;;;;;;10475735;28;20036;-82
2023/08/04 03:30:36;;;;;;;2.45;1.98;;;;;;;;;;10480079;28;20031;-82
2023/08/04 03:35:36;;;;;;;2.80;1.90;;;;;;;;;;10473835;28;20040;-84
2023/08/04 03:40:38;;;;;;;3.97;2.63;;;;;;;;;;10471069;28;20071;-83
2023/08/04 03:45:38;;;;;;;4.25;2.55;;;;;;;;;;10472850;28;20321;-83
2023/08/04 03:50:39;;;;;;;3.55;2.20;;;;;;;;;;10472166;28;20041;-85
2023/08/04 03:55:40;;;;;;;3.75;2.20;;;;;;;;;;10470651;28;20048;-81
2023/08/04 04:00:41;;;;;;;2.40;2.00;;;;;;;;;;10476480;28;20056;-85
2023/08/04 04:05:42;;;;;;;2.67;1.80;;;;;;;;;;10491081;28;20313;-84
2023/08/04 04:10:42;;;;;;;2.63;1.60;;;;;;;;;;10478696;28;20043;-85
2023/08/04 04:15:43;;;;;;;4.30;2.05;;;;;;;;;;10501704;28;20040;-80
2023/08/04 04:20:43;;;;;;;3.88;1.90;;;;;;;;;;10503633;28;20055;-82
2023/08/04 04:25:44;;;;;;;2.40;1.77;;;;;;;;;;10514044;28;20056;-86
2023/08/04 04:30:44;;;;;;;3.33;2.00;;;;;;;;;;10539516;27;20963;-87
2023/08/04 04:35:49;;;;;;;2.28;1.75;;;;;;;;;;10513374;28;20060;-81
2023/08/04 04:41:01;;;;;;;2.15;1.60;;;;;;;;;;10485362;28;20419;-81
2023/08/04 04:46:03;;;;;;;2.88;1.88;;;;;;;;;;10490811;28;20107;-82
2023/08/04 04:51:05;;;;;;;4.68;1.88;;;;;;;;;;10503416;28;21263;-84
2023/08/04 04:56:08;;;;;;;2.30;1.90;;;;;;;;;;10495598;28;20036;-83
2023/08/04 05:01:09;;;;;;;4.55;2.15;;;;;;;;;;10507678;28;20132;-87
2023/08/04 05:06:09;;;;;;;4.75;1.90;;;;;;;;;;10502698;28;20097;-82
2023/08/04 05:11:09;;;;;;;2.73;1.70;;;;;;;;;;10490007;28;20091;-88
2023/08/04 05:16:10;;;;;;;2.97;2.03;;;;;;;;;;10492603;28;20064;-88
2023/08/04 05:21:20;;;;;;;4.15;2.30;;;;;;;;;;10503425;28;20310;-87
2023/08/04 05:26:20;;;;;;;3.42;1.90;;;;;;;;;;10507265;28;20105;-85
2023/08/04 05:31:20;;;;;;;2.13;1.90;;;;;;;;;;10498394;28;20071;-84
2023/08/04 05:36:23;;;;;;;3.03;2.17;;;;;;;;;;10498623;28;20044;-84
2023/08/04 05:41:25;;;;;;;2.35;1.90;;;;;;;;;;10494888;28;20120;-82
2023/08/04 05:46:25;;;;;;;2.60;2.20;;;;;;;;;;10487980;28;20053;-82
2023/08/04 05:51:25;;;;;;;4.38;1.70;;;;;;;;;;10485237;28;20576;-80
2023/08/04 05:56:26;;;;;;;2.40;1.73;;;;;;;;;;10492793;28;20051;-81
2023/08/04 06:01:27;;;;;;;2.23;1.80;;;;;;;;;;10488324;28;20309;-77
2023/08/04 06:06:27;;;;;;;2.75;1.50;;;;;;;;;;10472899;28;20286;-75
2023/08/04 06:11:27;;;;;;;2.80;1.77;;;;;;;;;;10479419;28;21106;-74
2023/08/04 06:16:28;;;;;;;3.53;2.00;;;;;;;;;;10474816;28;20055;-74
2023/08/04 06:21:29;;;;;;;4.27;1.83;;;;;;;;;;10470442;28;20115;-75
2023/08/04 06:26:30;;;;;;;5.15;1.95;;;;;;;;;;10478415;28;20352;-78
2023/08/04 06:31:32;;;;;;;;;;;;;;;;;;10466568;28;20463;-82
2023/08/04 06:36:32;;;;;;;2.22;1.90;;;;;;;;;;10492839;28;19919;-83
2023/08/04 06:41:33;;;;;;;2.87;1.90;;;;;;;;;;10494690;28;20120;-80
2023/08/04 06:46:33;;;;;;;4.80;1.80;;;;;;;;;;10484455;28;20135;-79
2023/08/04 06:51:33;;;;;;;4.73;2.17;;;;;;;;;;10499937;28;20077;-83
2023/08/04 06:56:34;;;;;;;3.87;2.03;;;;;;;;;;10468367;28;20695;-81
2023/08/04 07:01:34;;;;;;;4.93;2.10;;;;;;;;;;10469309;28;20323;-81
2023/08/04 07:06:34;;;;;;;5.47;1.70;;;;;;;;;;10524869;28;20302;-85
2023/08/04 07:11:35;;;;;;;4.40;1.70;;;;;;;;;;10522707;28;20037;-84
2023/08/04 07:16:35;;;;;;;4.13;1.73;;;;;;;;;;10522215;28;20051;-86
2023/08/04 07:21:36;;;;;;;2.50;1.60;;;;;;;;;;10519982;28;20426;-83
2023/08/04 07:26:36;;;;;;;2.42;1.58;;;;;;;;;;10499974;28;20993;-84
2023/08/04 07:31:36;;;;;;;2.28;1.98;;;;;;;;;;10491345;28;20052;-84
2023/08/04 07:36:37;;;;;;;2.87;1.50;;;;;;;;;;10483115;28;20637;-83
2023/08/04 07:41:37;;;;;;;3.05;1.60;;;;;;;;;;10486481;28;20067;-80
2023/08/04 07:46:37;;;;;;;2.97;1.63;;;;;;;;;;10485153;28;20064;-83
2023/08/04 07:51:39;;;;;;;2.45;1.30;;;;;;;;;;10456195;28;20052;-86
2023/08/04 07:56:40;;;;;;;2.03;1.30;;;;;;;;;;10463942;28;20040;-86
2023/08/04 08:01:40;;;;;;;6.07;4.27;;;;;;;;;;10483313;28;21779;-79
2023/08/04 08:06:40;;;;;;;2.90;1.43;;;;;;;;;;10458061;28;20048;-76
2023/08/04 08:11:41;;;;;;;2.25;1.40;;;;;;;;;;10472738;28;20770;-76
2023/08/04 08:16:41;;;;;;;2.13;1.50;;;;;;;;;;10478810;28;20508;-77
2023/08/04 08:21:42;;;;;;;3.10;1.38;;;;;;;;;;10469692;28;20060;-75
2023/08/04 08:26:44;;;;;;;4.57;2.95;;;;;;;;;;10497920;28;20036;-86
2023/08/04 08:31:44;;;;;;;4.30;1.80;;;;;;;;;;10482160;28;20058;-83
2023/08/04 08:36:48;;;;;;;2.67;1.40;;;;;;;;;;10518871;28;20040;-83
2023/08/04 08:41:50;;;;;;;2.50;1.50;;;;;;;;;;10479915;28;20378;-84
2023/08/04 08:46:52;;;;;;;3.30;1.60;;;;;;;;;;10499563;28;20056;-84
2023/08/04 08:51:52;;;;;;;2.20;1.73;;;;;;;;;;10497598;28;20302;-83
2023/08/04 08:56:53;;;;;;;2.15;1.40;;;;;;;;;;10495024;28;20278;-80
2023/08/04 09:01:55;;;;;;;2.08;1.58;;;;;;;;;;10525804;28;20064;-82
2023/08/04 09:06:56;;;;;;;12.40;8.13;;;;;;;;;;10543825;28;20060;-83
2023/08/04 09:11:57;;;;;;;1.77;1.20;;;;;;;;;;10498012;28;20040;-79
2023/08/04 09:16:57;;;;;;;2.60;1.25;;;;;;;;;;10487090;28;20493;-80
2023/08/04 09:21:58;;;;;;;2.10;1.27;;;;;;;;;;10493298;28;20067;-81
2023/08/04 09:26:58;;;;;;;1.55;1.42;;;;;;;;;;10502022;28;20064;-81
2023/08/04 09:31:59;;;;;;;1.63;1.20;;;;;;;;;;10502908;28;20028;-83
2023/08/04 09:36:59;;;;;;;1.93;1.30;;;;;;;;;;10479475;28;21087;-80
2023/08/04 09:41:59;;;;;;;2.27;1.40;;;;;;;;;;10488797;28;20149;-78
2023/08/04 09:47:00;;;;;;;2.63;1.40;;;;;;;;;;10483088;28;20516;-79
2023/08/04 09:52:01;;;;;;;4.30;3.73;;;;;;;;;;10489500;28;20040;-84
2023/08/04 09:57:02;;;;;;;1.83;1.33;;;;;;;;;;10494073;28;20299;-81
2023/08/04 10:02:02;;;;;;;1.77;1.33;;;;;;;;;;10482422;28;20064;-77
2023/08/04 10:07:03;;;;;;;2.88;1.23;;;;;;;;;;10483951;28;20051;-77
2023/08/04 10:12:04;;;;;;;1.83;1.60;;;;;;;;;;10465283;28;20053;-76
2023/08/04 10:17:05;;;;;;;2.25;1.65;;;;;;;;;;10462794;28;20110;-76
2023/08/04 10:22:07;;;;;;;3.75;1.70;;;;;;;;;;10483027;28;20048;-76
2023/08/04 10:27:13;;;;;;;2.15;1.77;;;;;;;;;;10479311;28;20083;-79
2023/08/04 10:32:16;;;;;;;2.70;1.77;;;;;;;;;;10478597;28;20774;-72
2023/08/04 10:37:17;;;;;;;2.92;1.70;;;;;;;;;;10483659;28;20832;-77
2023/08/04 10:42:22;;;;;;;3.40;1.63;;;;;;;;;;10483342;28;20049;-76
2023/08/04 10:47:30;;;;;;;2.97;1.40;;;;;;;;;;10479473;28;20048;-74
2023/08/04 10:52:31;;;;;;;1.75;1.20;;;;;;;;;;10481215;28;20040;-75
2023/08/04 10:57:32;;;;;;;2.63;1.40;;;;;;;;;;10482965;28;20142;-77
2023/08/04 11:02:33;;;;;;;2.97;1.73;;;;;;;;;;10482442;28;20052;-76
2023/08/04 11:07:34;;;;;;;1.55;1.35;;;;;;;;;;10481779;28;20572;-74
2023/08/04 11:12:35;;;;;;;4.07;1.67;;;;;;;;;;10476521;28;20048;-75
2023/08/04 11:17:37;;;;;;;2.17;1.38;;;;;;;;;;10477190;28;20041;-75
2023/08/04 11:22:38;;;;;;;;;;;;;;;;;;10473792;28;20348;-72
2023/08/04 11:27:38;;;;;;;3.58;1.40;;;;;;;;;;10482126;28;19928;-77
2023/08/04 11:32:41;;;;;;;3.70;1.80;;;;;;;;;;10479369;28;20048;-76
2023/08/04 11:37:41;;;;;;;4.47;1.90;;;;;;;;;;10491861;28;20298;-75
2023/08/04 11:42:42;;;;;;;3.60;1.87;;;;;;;;;;10478771;28;20117;-79
2023/08/04 11:47:42;;;;;;;1.90;1.60;;;;;;;;;;10477817;28;20298;-79
2023/08/04 11:52:45;;;;;;;2.40;2.00;;;;;;;;;;10480033;28;21074;-78
2023/08/04 11:57:47;;;;;;;3.40;1.90;;;;;;;;;;10460768;28;20790;-78
2023/08/04 12:02:58;;;;;;;3.58;1.98;;;;;;;;;;10496601;28;20055;-80
2023/08/04 12:07:59;;;;;;;2.90;2.13;;;;;;;;;;10487144;28;20060;-77
2023/08/04 12:12:59;;;;;;;2.65;1.83;;;;;;;;;;10485493;28;20052;-79
2023/08/04 12:17:59;;;;;;;60.47;16.83;;;;;;;;;;10476685;28;20040;-78
2023/08/04 12:23:11;;;;;;;3.70;1.70;;;;;;;;;;10460994;28;21177;-77
2023/08/04 12:28:12;;;;;;;3.58;1.90;;;;;;;;;;10454671;28;20280;-79
2023/08/04 12:33:12;;;;;;;2.67;1.90;;;;;;;;;;10477366;28;20044;-80
2023/08/04 12:38:12;;;;;;;4.57;2.07;;;;;;;;;;10475518;28;20729;-77
2023/08/04 12:43:13;;;;;;;1.90;1.50;;;;;;;;;;10455262;28;20052;-77
2023/08/04 12:48:13;;;;;;;2.33;1.50;;;;;;;;;;10470618;28;20282;-78
2023/08/04 12:53:16;;;;;;;1.87;1.67;;;;;;;;;;10475706;28;20651;-79
2023/08/04 12:58:17;;;;;;;2.22;1.73;;;;;;;;;;10469040;28;20317;-77
2023/08/04 13:03:17;;;;;;;3.50;1.60;;;;;;;;;;10453711;28;20056;-77
2023/08/04 13:08:18;;;;;;;2.50;1.70;;;;;;;;;;10467674;28;20036;-77
2023/08/04 13:13:18;;;;;;;2.73;2.13;;;;;;;;;;10464031;28;20148;-78
2023/08/04 13:18:19;;;;;;;3.67;2.35;;;;;;;;;;10476811;28;20072;-77
2023/08/04 13:23:19;;;;;;;2.20;1.80;;;;;;;;;;10478674;28;20056;-78
2023/08/04 13:28:19;;;;;;;2.27;1.90;;;;;;;;;;10476396;28;20291;-80
2023/08/04 13:33:20;;;;;;;2.27;1.60;;;;;;;;;;10489030;28;20622;-78
2023/08/04 13:38:20;;;;;;;2.07;1.63;;;;;;;;;;10482705;28;20044;-78
2023/08/04 13:43:21;;;;;;;3.30;1.60;;;;;;;;;;10482184;28;20045;-79
2023/08/04 13:48:21;;;;;;;4.30;1.75;;;;;;;;;;10484327;28;20047;-80
2023/08/04 13:53:25;;;;;;;2.60;1.70;;;;;;;;;;10506956;28;20037;-78
2023/08/04 13:58:25;;;;;;;3.35;3.05;;;;;;;;;;10516829;28;20998;-79
2023/08/04 14:03:25;;;;;;;1.80;1.50;;;;;;;;;;10483655;28;20048;-78
2023/08/04 14:08:26;;;;;;;2.05;1.52;;;;;;;;;;10483535;28;20110;-79
2023/08/04 14:13:27;;;;;;;2.13;1.42;;;;;;;;;;10472995;28;20045;-79
2023/08/04 14:18:27;;;;;;;2.40;1.80;;;;;;;;;;10488395;28;20389;-79
2023/08/04 14:23:27;;;;;;;1.90;1.43;;;;;;;;;;10486585;28;20387;-78
2023/08/04 14:28:28;;;;;;;3.80;1.50;;;;;;;;;;10485976;28;20044;-79
2023/08/04 14:33:28;;;;;;;2.35;1.60;;;;;;;;;;10484275;28;20496;-81
2023/08/04 14:38:28;;;;;;;2.10;1.83;;;;;;;;;;10484560;28;20059;-77
2023/08/04 14:43:29;;;;;;;3.00;1.73;;;;;;;;;;10471114;28;20121;-78
2023/08/04 14:48:29;;;;;;;2.80;2.00;;;;;;;;;;10504135;28;20053;-83
2023/08/04 14:53:29;;;;;;;3.37;2.10;;;;;;;;;;10493241;28;20051;-81
2023/08/04 14:58:30;;;;;;;4.53;2.30;;;;;;;;;;10491603;28;20040;-78
2023/08/04 15:03:31;;;;;;;2.30;2.08;;;;;;;;;;10489558;28;20455;-79
2023/08/04 15:08:32;;;;;;;2.17;1.80;;;;;;;;;;10477558;28;20079;-80
2023/08/04 15:13:32;;;;;;;2.20;1.60;;;;;;;;;;10480869;28;20040;-80
2023/08/04 15:18:33;;;;;;;2.17;1.83;;;;;;;;;;10486294;28;20471;-77
2023/08/04 15:23:33;;;;;;;2.65;1.80;;;;;;;;;;10497157;28;20453;-78
2023/08/04 15:28:33;;;;;;;1.77;1.67;;;;;;;;;;10497466;28;20062;-77
2023/08/04 15:33:35;;;;;;;2.83;2.10;;;;;;;;;;10482584;28;20187;-77
2023/08/04 15:38:35;;;;;;;1.92;1.60;;;;;;;;;;10488220;28;20090;-78
2023/08/04 15:43:37;;;;;;;2.25;1.90;;;;;;;;;;10488442;28;20570;-79
2023/08/04 15:48:37;;;;;;;2.13;1.93;;;;;;;;;;10468228;28;20049;-78
2023/08/04 15:53:39;;;;;;;1.47;1.37;;;;;;;;;;10490591;28;20044;-78
2023/08/04 15:58:40;;;;;;;1.67;1.58;;;;;;;;;;10501684;28;20037;-81
2023/08/04 16:03:40;;;;;;;1.70;1.23;;;;;;;;;;10497297;28;20056;-82
2023/08/04 16:08:40;;;;;;;1.80;1.50;;;;;;;;;;10491514;28;20051;-79
2023/08/04 16:13:41;;;;;;;6.68;5.28;;;;;;;;;;10503638;28;20090;-81
2023/08/04 16:18:42;;;;;;;2.67;2.47;;;;;;;;;;10499837;28;20838;-73
2023/08/04 16:23:42;;;;;;;1.50;1.40;;;;;;;;;;10465966;28;20060;-75
2023/08/04 16:28:42;;;;;;;2.60;1.77;;;;;;;;;;10481359;28;20044;-77
2023/08/04 16:33:43;;;;;;;3.17;2.00;;;;;;;;;;10486106;28;20069;-76
2023/08/04 16:38:43;;;;;;;4.33;1.90;;;;;;;;;;10483461;28;20037;-79
2023/08/04 16:43:43;;;;;;;3.43;2.87;;;;;;;;;;10468966;28;20090;-78
2023/08/04 16:48:44;;;;;;;2.30;2.10;;;;;;;;;;10475853;28;20053;-77
2023/08/04 16:53:44;;;;;;;1.50;1.40;;;;;;;;;;10506801;28;20044;-79
2023/08/04 16:58:45;;;;;;;2.57;1.40;;;;;;;;;;10472394;28;20052;-79
2023/08/04 17:03:45;;;;;;;1.40;1.17;;;;;;;;;;10488374;28;20376;-78
2023/08/04 17:08:45;;;;;;;2.83;1.53;;;;;;;;;;10486946;28;20297;-79
2023/08/04 17:13:46;;;;;;;2.50;1.70;;;;;;;;;;10490320;28;20068;-79
2023/08/04 17:18:47;;;;;;;2.53;1.40;;;;;;;;;;10488783;28;20055;-82
2023/08/04 17:23:48;;;;;;;1.63;1.10;;;;;;;;;;10488488;28;20056;-75
2023/08/04 17:28:48;;;;;;;1.83;1.55;;;;;;;;;;10449110;28;20106;-74
2023/08/04 17:33:48;;;;;;;1.40;1.20;;;;;;;;;;10488922;28;20036;-75
2023/08/04 17:38:49;;;;;;;2.37;1.50;;;;;;;;;;10471236;28;20093;-76
2023/08/04 17:43:49;;;;;;;7.57;2.77;;;;;;;;;;10470617;28;20067;-86
2023/08/04 17:48:50;;;;;;;3.45;2.15;;;;;;;;;;10495223;28;20297;-83
2023/08/04 17:53:51;;;;;;;6.50;3.67;;;;;;;;;;10501596;28;20044;-86
2023/08/04 17:58:51;;;;;;;8.30;2.70;;;;;;;;;;10475206;28;20334;-81
2023/08/04 18:03:52;;;;;;;6.17;3.00;;;;;;;;;;10465351;28;20048;-80
2023/08/04 18:08:52;;;;;;;4.43;2.90;;;;;;;;;;10465205;28;20287;-79
2023/08/04 18:13:56;;;;;;;3.90;3.00;;;;;;;;;;10480876;28;20041;-83
2023/08/04 18:18:57;;;;;;;5.97;3.27;;;;;;;;;;10502653;28;20055;-86
2023/08/04 18:24:02;;;;;;;4.68;2.90;;;;;;;;;;10490703;28;20056;-87
2023/08/04 18:29:05;;;;;;;5.90;3.88;;;;;;;;;;10499551;28;20066;-84
2023/08/04 18:34:14;;;;;;;5.18;3.20;;;;;;;;;;10501404;28;20045;-85
2023/08/04 18:39:14;;;;;;;3.63;3.00;;;;;;;;;;10528592;28;20052;-88
2023/08/04 18:44:15;;;;;;;5.40;3.03;;;;;;;;;;10565047;28;20052;-91
2023/08/04 18:49:15;;;;;;;5.33;3.63;;;;;;;;;;10535340;28;20056;-86
2023/08/04 18:54:22;;;;;;;6.93;3.40;;;;;;;;;;10495356;28;20036;-84
2023/08/04 18:59:22;;;;;;;6.97;4.18;;;;;;;;;;10490026;28;20105;-83
2023/08/04 19:04:23;;;;;;;7.72;4.43;;;;;;;;;;10499102;28;20074;-86
2023/08/04 19:09:27;;;;;;;6.43;4.43;;;;;;;;;;10500904;28;20555;-82
2023/08/04 19:14:28;;;;;;;9.38;5.18;;;;;;;;;;10513173;28;20075;-85
2023/08/04 19:19:43;;;;;;;10.68;4.25;;;;;;;;;;10489131;28;20059;-81
2023/08/04 19:24:46;;;;;;;8.60;3.80;;;;;;;;;;10507800;28;20142;-83
2023/08/04 19:29:51;;;;;;;6.70;3.65;;;;;;;;;;10502994;28;20403;-84
2023/08/04 19:34:52;;;;;;;5.20;3.60;;;;;;;;;;10529400;28;20076;-82
2023/08/04 19:39:53;;;;;;;7.70;4.20;;;;;;;;;;10515070;28;20107;-82
2023/08/04 19:44:54;;;;;;;6.30;3.92;;;;;;;;;;10498698;28;20140;-82
2023/08/04 19:49:54;;;;;;;5.53;3.77;;;;;;;;;;10483607;28;20078;-81
2023/08/04 19:54:54;;;;;;;7.05;3.67;;;;;;;;;;10507503;28;20070;-82
2023/08/04 19:59:56;;;;;;;5.65;3.30;;;;;;;;;;10506932;28;20079;-84
2023/08/04 20:04:57;;;;;;;5.45;4.00;;;;;;;;;;10467703;28;20073;-81
2023/08/04 20:09:58;;;;;;;9.00;4.03;;;;;;;;;;10478196;28;20178;-82
2023/08/04 20:14:58;;;;;;;5.83;4.00;;;;;;;;;;10469123;28;20052;-81
2023/08/04 20:19:58;;;;;;;6.18;3.95;;;;;;;;;;10489816;28;20052;-82
2023/08/04 20:24:59;;;;;;;6.27;4.10;;;;;;;;;;10494667;28;20748;-83
2023/08/04 20:29:59;;;;;;;5.83;4.23;;;;;;;;;;10485591;28;20048;-85
2023/08/04 20:34:59;;;;;;;6.73;3.97;;;;;;;;;;10490766;28;20348;-83
2023/08/04 20:40:00;;;;;;;7.93;4.73;;;;;;;;;;10498661;28;20044;-87
2023/08/04 20:45:00;;;;;;;7.18;5.22;;;;;;;;;;10508556;28;20067;-86
2023/08/04 20:50:02;;;;;;;8.70;5.27;;;;;;;;;;10490710;28;20067;-83
2023/08/04 20:55:02;;;;;;;7.50;5.03;;;;;;;;;;10462961;28;20290;-82
2023/08/04 21:00:03;;;;;;;6.60;4.68;;;;;;;;;;10477091;28;20040;-83
2023/08/04 21:05:03;;;;;;;6.00;4.93;;;;;;;;;;10489706;28;20072;-84
2023/08/04 21:10:04;;;;;;;9.18;6.15;;;;;;;;;;10476290;28;20053;-82
2023/08/04 21:15:07;;;;;;;6.00;5.05;;;;;;;;;;10507201;28;20067;-82
2023/08/04 21:20:08;;;;;;;;;;;;;;;;;;10489713;28;20051;-81
2023/08/04 21:25:09;;;;;;;6.82;4.97;;;;;;;;;;10508886;28;19989;-84
2023/08/04 21:30:10;;;;;;;7.97;5.45;;;;;;;;;;10496398;28;20420;-83
2023/08/04 21:35:10;;;;;;;10.50;6.20;;;;;;;;;;10495977;28;20051;-86
2023/08/04 21:40:11;;;;;;;6.20;5.20;;;;;;;;;;10476109;28;20499;-84
2023/08/04 21:45:11;;;;;;;6.57;5.00;;;;;;;;;;10487207;28;20047;-86
2023/08/04 21:50:12;;;;;;;7.17;5.07;;;;;;;;;;10482250;28;20982;-86
2023/08/04 21:55:12;;;;;;;7.65;5.45;;;;;;;;;;10486191;28;20048;-84
2023/08/04 22:00:13;;;;;;;8.93;6.03;;;;;;;;;;10489235;28;20071;-86
2023/08/04 22:05:13;;;;;;;5.78;4.60;;;;;;;;;;10499510;28;20044;-86
2023/08/04 22:10:14;;;;;;;7.60;5.20;;;;;;;;;;10487318;28;20044;-85
2023/08/04 22:15:14;;;;;;;7.73;6.17;;;;;;;;;;10492054;28;20045;-85
2023/08/04 22:20:14;;;;;;;8.15;5.80;;;;;;;;;;10480998;28;20324;-84
2023/08/04 22:25:15;;;;;;;7.67;5.20;;;;;;;;;;10489141;28;20048;-85
2023/08/04 22:30:15;;;;;;;8.57;6.10;;;;;;;;;;10510536;28;20283;-84
2023/08/04 22:35:16;;;;;;;6.57;5.15;;;;;;;;;;10500710;28;20315;-87
2023/08/04 22:40:16;;;;;;;9.40;5.47;;;;;;;;;;10466842;28;20656;-84
2023/08/04 22:45:16;;;;;;;6.27;5.07;;;;;;;;;;10478544;28;20389;-84
2023/08/04 22:50:16;;;;;;;6.70;5.23;;;;;;;;;;10469789;28;20072;-85
2023/08/04 22:55:17;;;;;;;8.00;5.50;;;;;;;;;;10482451;28;20146;-85
2023/08/04 23:00:17;;;;;;;8.50;5.43;;;;;;;;;;10492464;28;20060;-84
2023/08/04 23:05:18;;;;;;;5.93;4.27;;;;;;;;;;10512911;28;20328;-86
2023/08/04 23:10:19;;;;;;;7.32;4.65;;;;;;;;;;10520792;28;20274;-85
2023/08/04 23:15:20;;;;;;;6.07;4.70;;;;;;;;;;10446888;28;20036;-84
2023/08/04 23:20:20;;;;;;;7.80;5.23;;;;;;;;;;10475322;28;20058;-83
2023/08/04 23:25:20;;;;;;;7.90;5.43;;;;;;;;;;10482589;28;20078;-83
2023/08/04 23:30:21;;;;;;;10.03;7.13;;;;;;;;;;10469351;28;20284;-84
2023/08/04 23:35:21;;;;;;;8.70;6.03;;;;;;;;;;10476508;28;20125;-82
2023/08/04 23:40:22;;;;;;;9.68;6.88;;;;;;;;;;10491676;28;20312;-85
2023/08/04 23:45:22;;;;;;;8.37;5.63;;;;;;;;;;10501982;28;20103;-85
2023/08/04 23:50:23;;;;;;;9.45;5.80;;;;;;;;;;10492319;28;20058;-85
2023/08/04 23:55:23;;;;;;;7.78;5.75;;;;;;;;;;10481568;28;20048;-88
